East Blacksea — T2ZH3 — position and weather

sailwx.info

Track history (hours):
 
Tides and Currents Weather Stations Pressure Air Temp Water Temp Dewpoint Dewpoint Depression Visibility Wind Speed Wind Dir Waves Ship Positions

East Blacksea

Last reported at 2016-Jul-25 03:33 UTC. Time now 2016-Jul-27 17:14 UTC.
Position N 34°26' E 011°23'.

Length 69 m; draft 2.4 m.

Type: Ship. MMSI: 572341210.

Date/timePositionNaut miles runAvg speedWind from/ knotsBaromVisibWave heightAir tempDewpointWater temp
2016-Jul-25 03:33N 34°26' E 011°23'  
2016-Jul-22 21:12N 34°23' E 011°07'5 8.3
2016-Jul-22 20:33N 34°25' E 011°12'19 8.3
2016-Jul-22 18:13N 34°35' E 011°33'14 8.2
2016-Jul-22 16:34N 34°41' E 011°47'16 7.8
2016-Jul-22 14:27N 34°57' E 011°54'8 8.6
2016-Jul-22 13:33N 35°04' E 011°54'9 8.8
2016-Jul-22 12:33N 35°13' E 011°55'10 8.6
2016-Jul-22 11:21N 35°23' E 011°54'7 8.5
2016-Jul-22 10:33N 35°30' E 011°54'8 8.5
2016-Jul-22 09:34N 35°39' E 011°54'9 8.5
2016-Jul-22 08:32N 35°47' E 011°54'92 8.9
2016-Jul-21 22:12N 37°20' E 011°53'18 8.8
2016-Jul-21 20:10N 37°38' E 011°56'6 9.1
2016-Jul-21 19:33N 37°43' E 011°57'9 9.0
2016-Jul-21 18:33N 37°52' E 011°58'9 8.9
2016-Jul-21 17:33N 38°01' E 011°59'9 8.9
2016-Jul-21 16:33N 38°08' E 012°05'12 9.2
2016-Jul-21 15:17N 38°17' E 012°15'7 9.1
2016-Jul-21 14:33N 38°22' E 012°21'9 8.9
2016-Jul-21 13:33N 38°29' E 012°28'9 8.8
2016-Jul-21 12:30N 38°36' E 012°35'8 8.3
2016-Jul-21 11:33N 38°42' E 012°42'9 8.9
2016-Jul-21 10:33N 38°49' E 012°49'9 8.7
2016-Jul-21 09:33N 38°56' E 012°57'8 8.3
2016-Jul-21 08:33N 39°02' E 013°04'8 8.0
2016-Jul-21 07:33N 39°08' E 013°10'9 8.1
2016-Jul-21 06:29N 39°14' E 013°18'8 8.2
2016-Jul-21 05:33N 39°20' E 013°24'8 8.2
2016-Jul-21 04:33N 39°26' E 013°31'8 8.2
2016-Jul-21 03:32N 39°33' E 013°38'16 8.0
2016-Jul-21 01:33N 39°46' E 013°50'8 7.8
2016-Jul-21 00:33N 39°52' E 013°56'8 7.5
2016-Jul-20 23:32N 39°58' E 014°02'25 0.8
2016-Jul-19 14:32N 40°16' E 014°24'38 7.7
2016-Jul-19 09:32N 39°45' E 013°55'8 7.7
2016-Jul-19 08:33N 39°39' E 013°50'8 7.7
2016-Jul-19 07:33N 39°32' E 013°44'23 7.7
2016-Jul-19 04:32N 39°13' E 013°28'8 7.8
2016-Jul-19 03:33N 39°07' E 013°23'8 7.8
2016-Jul-19 02:33N 39°00' E 013°17'23 7.1
2016-Jul-18 23:19N 38°45' E 012°54'6 7.3
2016-Jul-18 22:32N 38°44' E 012°47'7 7.3
2016-Jul-18 21:33N 38°42' E 012°38'7 7.3
2016-Jul-18 20:33N 38°40' E 012°29'8 7.4
2016-Jul-18 19:31N 38°38' E 012°20'70 7.7
2016-Jul-18 10:27N 38°17' E 010°54'17 8.2
2016-Jul-18 08:22N 38°11' E 010°33'7 7.9
2016-Jul-18 07:32N 38°10' E 010°25'17 7.8
2016-Jul-18 05:22N 38°05' E 010°05'24 7.5
2016-Jul-18 02:13N 37°59' E 009°36'13 7.7
2016-Jul-18 00:33N 37°56' E 009°20'  
Track history (hours):
 
Tides and Currents Weather Stations Pressure Air Temp Water Temp Dewpoint Dewpoint Depression Visibility Wind Speed Wind Dir Waves Ship Positions

East Blacksea

Last reported at 2016-Jul-25 03:33 UTC. Time now 2016-Jul-27 17:14 UTC.
Position N 34°26' E 011°23'.

Length 69 m; draft 2.4 m.

Type: Ship. MMSI: 572341210.

Date/timePositionNaut miles runAvg speedWind from/ knotsBaromVisibWave heightAir tempDewpointWater temp
2016-Jul-25 03:33N 34°26' E 011°23'  
2016-Jul-22 21:12N 34°23' E 011°07'5 8.3
2016-Jul-22 20:33N 34°25' E 011°12'19 8.3
2016-Jul-22 18:13N 34°35' E 011°33'14 8.2
2016-Jul-22 16:34N 34°41' E 011°47'16 7.8
2016-Jul-22 14:27N 34°57' E 011°54'8 8.6
2016-Jul-22 13:33N 35°04' E 011°54'9 8.8
2016-Jul-22 12:33N 35°13' E 011°55'10 8.6
2016-Jul-22 11:21N 35°23' E 011°54'7 8.5
2016-Jul-22 10:33N 35°30' E 011°54'8 8.5
2016-Jul-22 09:34N 35°39' E 011°54'9 8.5
2016-Jul-22 08:32N 35°47' E 011°54'92 8.9
2016-Jul-21 22:12N 37°20' E 011°53'18 8.8
2016-Jul-21 20:10N 37°38' E 011°56'6 9.1
2016-Jul-21 19:33N 37°43' E 011°57'9 9.0
2016-Jul-21 18:33N 37°52' E 011°58'9 8.9
2016-Jul-21 17:33N 38°01' E 011°59'9 8.9
2016-Jul-21 16:33N 38°08' E 012°05'12 9.2
2016-Jul-21 15:17N 38°17' E 012°15'7 9.1
2016-Jul-21 14:33N 38°22' E 012°21'9 8.9
2016-Jul-21 13:33N 38°29' E 012°28'9 8.8
2016-Jul-21 12:30N 38°36' E 012°35'8 8.3
2016-Jul-21 11:33N 38°42' E 012°42'9 8.9
2016-Jul-21 10:33N 38°49' E 012°49'9 8.7
2016-Jul-21 09:33N 38°56' E 012°57'8 8.3
2016-Jul-21 08:33N 39°02' E 013°04'8 8.0
2016-Jul-21 07:33N 39°08' E 013°10'9 8.1
2016-Jul-21 06:29N 39°14' E 013°18'8 8.2
2016-Jul-21 05:33N 39°20' E 013°24'8 8.2
2016-Jul-21 04:33N 39°26' E 013°31'8 8.2
2016-Jul-21 03:32N 39°33' E 013°38'16 8.0
2016-Jul-21 01:33N 39°46' E 013°50'8 7.8
2016-Jul-21 00:33N 39°52' E 013°56'8 7.5
2016-Jul-20 23:32N 39°58' E 014°02'25 0.8
2016-Jul-19 14:32N 40°16' E 014°24'38 7.7
2016-Jul-19 09:32N 39°45' E 013°55'8 7.7
2016-Jul-19 08:33N 39°39' E 013°50'8 7.7
2016-Jul-19 07:33N 39°32' E 013°44'23 7.7
2016-Jul-19 04:32N 39°13' E 013°28'8 7.8
2016-Jul-19 03:33N 39°07' E 013°23'8 7.8
2016-Jul-19 02:33N 39°00' E 013°17'23 7.1
2016-Jul-18 23:19N 38°45' E 012°54'6 7.3
2016-Jul-18 22:32N 38°44' E 012°47'7 7.3
2016-Jul-18 21:33N 38°42' E 012°38'7 7.3
2016-Jul-18 20:33N 38°40' E 012°29'8 7.4
2016-Jul-18 19:31N 38°38' E 012°20'70 7.7
2016-Jul-18 10:27N 38°17' E 010°54'17 8.2
2016-Jul-18 08:22N 38°11' E 010°33'7 7.9
2016-Jul-18 07:32N 38°10' E 010°25'17 7.8
2016-Jul-18 05:22N 38°05' E 010°05'24 7.5
2016-Jul-18 02:13N 37°59' E 009°36'13 7.7
2016-Jul-18 00:33N 37°56' E 009°20'  

Dump ship's entire track history